sensor_id;sensor_type;location;lat;lon;timestamp;P1;durP1;ratioP1;P2;durP2;ratioP2
78209;SDS011;67485;48.816;9.930;2023-04-25T00:00:51;2.75;;;1.48;;
78209;SDS011;67485;48.816;9.930;2023-04-25T00:03:17;3.53;;;1.77;;
78209;SDS011;67485;48.816;9.930;2023-04-25T00:05:43;4.13;;;1.50;;
78209;SDS011;67485;48.816;9.930;2023-04-25T00:08:10;3.72;;;1.90;;
78209;SDS011;67485;48.816;9.930;2023-04-25T00:10:36;3.63;;;1.85;;
78209;SDS011;67485;48.816;9.930;2023-04-25T00:13:02;3.90;;;1.70;;
78209;SDS011;67485;48.816;9.930;2023-04-25T00:15:28;2.40;;;1.38;;
78209;SDS011;67485;48.816;9.930;2023-04-25T00:17:56;4.97;;;1.85;;
78209;SDS011;67485;48.816;9.930;2023-04-25T00:20:22;9.65;;;1.70;;
78209;SDS011;67485;48.816;9.930;2023-04-25T00:22:49;4.53;;;1.80;;
78209;SDS011;67485;48.816;9.930;2023-04-25T00:25:14;5.20;;;1.58;;
78209;SDS011;67485;48.816;9.930;2023-04-25T00:27:40;5.25;;;1.60;;
78209;SDS011;67485;48.816;9.930;2023-04-25T00:30:07;3.97;;;1.40;;
78209;SDS011;67485;48.816;9.930;2023-04-25T00:32:33;2.75;;;1.40;;
78209;SDS011;67485;48.816;9.930;2023-04-25T00:34:59;2.83;;;1.42;;
78209;SDS011;67485;48.816;9.930;2023-04-25T00:37:25;2.45;;;1.42;;
78209;SDS011;67485;48.816;9.930;2023-04-25T00:39:51;3.13;;;1.33;;
78209;SDS011;67485;48.816;9.930;2023-04-25T00:42:18;2.80;;;1.40;;
78209;SDS011;67485;48.816;9.930;2023-04-25T00:44:46;2.75;;;1.40;;
78209;SDS011;67485;48.816;9.930;2023-04-25T00:47:12;2.85;;;1.30;;
78209;SDS011;67485;48.816;9.930;2023-04-25T00:49:38;3.67;;;1.20;;
78209;SDS011;67485;48.816;9.930;2023-04-25T00:52:04;2.60;;;1.38;;
78209;SDS011;67485;48.816;9.930;2023-04-25T00:54:30;2.60;;;1.25;;
78209;SDS011;67485;48.816;9.930;2023-04-25T00:56:56;2.75;;;1.33;;
78209;SDS011;67485;48.816;9.930;2023-04-25T00:59:22;2.90;;;1.20;;
78209;SDS011;67485;48.816;9.930;2023-04-25T01:01:48;4.57;;;1.27;;
78209;SDS011;67485;48.816;9.930;2023-04-25T01:04:14;2.22;;;1.30;;
78209;SDS011;67485;48.816;9.930;2023-04-25T01:06:40;2.60;;;1.30;;
78209;SDS011;67485;48.816;9.930;2023-04-25T01:09:06;4.50;;;1.50;;
78209;SDS011;67485;48.816;9.930;2023-04-25T01:11:32;2.57;;;1.40;;
78209;SDS011;67485;48.816;9.930;2023-04-25T01:13:58;2.17;;;1.02;;
78209;SDS011;67485;48.816;9.930;2023-04-25T01:16:24;3.05;;;1.50;;
78209;SDS011;67485;48.816;9.930;2023-04-25T01:18:50;5.10;;;1.33;;
78209;SDS011;67485;48.816;9.930;2023-04-25T01:21:16;2.90;;;1.40;;
78209;SDS011;67485;48.816;9.930;2023-04-25T01:23:43;2.00;;;1.10;;
78209;SDS011;67485;48.816;9.930;2023-04-25T01:26:09;3.97;;;1.40;;
78209;SDS011;67485;48.816;9.930;2023-04-25T01:28:36;4.10;;;1.30;;
78209;SDS011;67485;48.816;9.930;2023-04-25T01:31:03;2.75;;;1.20;;
78209;SDS011;67485;48.816;9.930;2023-04-25T01:33:31;2.90;;;1.40;;
78209;SDS011;67485;48.816;9.930;2023-04-25T01:35:56;3.70;;;1.20;;
78209;SDS011;67485;48.816;9.930;2023-04-25T01:38:22;2.45;;;1.25;;
78209;SDS011;67485;48.816;9.930;2023-04-25T01:40:49;2.28;;;1.10;;
78209;SDS011;67485;48.816;9.930;2023-04-25T01:43:18;1.80;;;1.00;;
78209;SDS011;67485;48.816;9.930;2023-04-25T01:45:44;2.00;;;1.10;;
78209;SDS011;67485;48.816;9.930;2023-04-25T01:48:11;3.53;;;1.40;;
78209;SDS011;67485;48.816;9.930;2023-04-25T01:50:39;2.63;;;1.15;;
78209;SDS011;67485;48.816;9.930;2023-04-25T01:53:05;5.30;;;1.20;;
78209;SDS011;67485;48.816;9.930;2023-04-25T01:55:31;2.30;;;1.10;;
78209;SDS011;67485;48.816;9.930;2023-04-25T01:58:07;2.22;;;1.20;;
78209;SDS011;67485;48.816;9.930;2023-04-25T02:00:59;2.83;;;1.35;;
78209;SDS011;67485;48.816;9.930;2023-04-25T02:03:31;2.60;;;1.20;;
78209;SDS011;67485;48.816;9.930;2023-04-25T02:05:57;2.43;;;1.43;;
78209;SDS011;67485;48.816;9.930;2023-04-25T02:08:24;2.70;;;1.38;;
78209;SDS011;67485;48.816;9.930;2023-04-25T02:10:53;2.80;;;1.40;;
78209;SDS011;67485;48.816;9.930;2023-04-25T02:13:19;3.55;;;1.40;;
78209;SDS011;67485;48.816;9.930;2023-04-25T02:15:57;2.30;;;1.27;;
78209;SDS011;67485;48.816;9.930;2023-04-25T02:18:22;4.55;;;1.30;;
78209;SDS011;67485;48.816;9.930;2023-04-25T02:20:48;2.83;;;1.47;;
78209;SDS011;67485;48.816;9.930;2023-04-25T02:23:14;4.35;;;1.60;;
78209;SDS011;67485;48.816;9.930;2023-04-25T02:25:44;3.85;;;1.60;;
78209;SDS011;67485;48.816;9.930;2023-04-25T02:28:10;3.07;;;1.77;;
78209;SDS011;67485;48.816;9.930;2023-04-25T02:30:36;4.53;;;1.75;;
78209;SDS011;67485;48.816;9.930;2023-04-25T02:33:04;3.45;;;1.70;;
78209;SDS011;67485;48.816;9.930;2023-04-25T02:35:30;3.35;;;1.70;;
78209;SDS011;67485;48.816;9.930;2023-04-25T02:37:55;3.20;;;2.00;;
78209;SDS011;67485;48.816;9.930;2023-04-25T02:40:21;4.25;;;2.03;;
78209;SDS011;67485;48.816;9.930;2023-04-25T02:42:47;3.23;;;1.57;;
78209;SDS011;67485;48.816;9.930;2023-04-25T02:45:13;4.22;;;1.80;;
78209;SDS011;67485;48.816;9.930;2023-04-25T02:47:39;3.58;;;1.80;;
78209;SDS011;67485;48.816;9.930;2023-04-25T02:50:05;5.43;;;1.93;;
78209;SDS011;67485;48.816;9.930;2023-04-25T02:52:31;3.30;;;1.90;;
78209;SDS011;67485;48.816;9.930;2023-04-25T02:55:06;3.25;;;1.80;;
78209;SDS011;67485;48.816;9.930;2023-04-25T02:57:34;3.97;;;1.70;;
78209;SDS011;67485;48.816;9.930;2023-04-25T03:00:00;3.33;;;1.80;;
78209;SDS011;67485;48.816;9.930;2023-04-25T03:02:25;5.20;;;1.77;;
78209;SDS011;67485;48.816;9.930;2023-04-25T03:04:51;4.30;;;1.75;;
78209;SDS011;67485;48.816;9.930;2023-04-25T03:07:17;2.77;;;1.53;;
78209;SDS011;67485;48.816;9.930;2023-04-25T03:09:42;4.45;;;2.08;;
78209;SDS011;67485;48.816;9.930;2023-04-25T03:12:08;3.47;;;1.70;;
78209;SDS011;67485;48.816;9.930;2023-04-25T03:14:34;4.18;;;1.85;;
78209;SDS011;67485;48.816;9.930;2023-04-25T03:17:00;3.90;;;1.55;;
78209;SDS011;67485;48.816;9.930;2023-04-25T03:19:26;3.97;;;1.57;;
78209;SDS011;67485;48.816;9.930;2023-04-25T03:21:51;3.13;;;1.63;;
78209;SDS011;67485;48.816;9.930;2023-04-25T03:24:18;3.83;;;2.00;;
78209;SDS011;67485;48.816;9.930;2023-04-25T03:26:43;3.87;;;1.83;;
78209;SDS011;67485;48.816;9.930;2023-04-25T03:29:09;3.17;;;1.50;;
78209;SDS011;67485;48.816;9.930;2023-04-25T03:31:36;4.05;;;1.50;;
78209;SDS011;67485;48.816;9.930;2023-04-25T03:34:02;4.22;;;1.60;;
78209;SDS011;67485;48.816;9.930;2023-04-25T03:36:28;3.53;;;1.80;;
78209;SDS011;67485;48.816;9.930;2023-04-25T03:38:54;3.50;;;1.60;;
78209;SDS011;67485;48.816;9.930;2023-04-25T03:41:20;4.32;;;1.90;;
78209;SDS011;67485;48.816;9.930;2023-04-25T03:43:51;3.57;;;1.80;;
78209;SDS011;67485;48.816;9.930;2023-04-25T03:46:16;3.20;;;1.70;;
78209;SDS011;67485;48.816;9.930;2023-04-25T03:48:42;2.70;;;1.60;;
78209;SDS011;67485;48.816;9.930;2023-04-25T03:51:11;3.90;;;1.75;;
78209;SDS011;67485;48.816;9.930;2023-04-25T03:53:41;3.95;;;1.95;;
78209;SDS011;67485;48.816;9.930;2023-04-25T03:56:18;6.63;;;2.35;;
78209;SDS011;67485;48.816;9.930;2023-04-25T03:58:47;4.38;;;2.40;;
78209;SDS011;67485;48.816;9.930;2023-04-25T04:01:15;5.53;;;2.40;;
78209;SDS011;67485;48.816;9.930;2023-04-25T04:03:41;3.70;;;1.80;;
78209;SDS011;67485;48.816;9.930;2023-04-25T04:06:07;3.95;;;2.22;;
78209;SDS011;67485;48.816;9.930;2023-04-25T04:08:39;5.00;;;2.10;;
78209;SDS011;67485;48.816;9.930;2023-04-25T04:11:05;7.13;;;2.93;;
78209;SDS011;67485;48.816;9.930;2023-04-25T04:13:32;7.40;;;2.47;;
78209;SDS011;67485;48.816;9.930;2023-04-25T04:15:57;3.58;;;2.00;;
78209;SDS011;67485;48.816;9.930;2023-04-25T04:18:23;4.72;;;2.17;;
78209;SDS011;67485;48.816;9.930;2023-04-25T04:20:49;4.97;;;1.90;;
78209;SDS011;67485;48.816;9.930;2023-04-25T04:23:16;3.55;;;1.98;;
78209;SDS011;67485;48.816;9.930;2023-04-25T04:25:41;3.30;;;1.90;;
78209;SDS011;67485;48.816;9.930;2023-04-25T04:28:26;2.60;;;1.70;;
78209;SDS011;67485;48.816;9.930;2023-04-25T04:30:56;3.38;;;1.75;;
78209;SDS011;67485;48.816;9.930;2023-04-25T04:33:24;3.70;;;1.90;;
78209;SDS011;67485;48.816;9.930;2023-04-25T04:35:55;3.45;;;1.63;;
78209;SDS011;67485;48.816;9.930;2023-04-25T04:38:21;5.63;;;1.90;;
78209;SDS011;67485;48.816;9.930;2023-04-25T04:40:47;2.90;;;1.80;;
78209;SDS011;67485;48.816;9.930;2023-04-25T04:43:22;4.43;;;1.80;;
78209;SDS011;67485;48.816;9.930;2023-04-25T04:46:14;3.13;;;1.83;;
78209;SDS011;67485;48.816;9.930;2023-04-25T04:48:52;5.57;;;2.00;;
78209;SDS011;67485;48.816;9.930;2023-04-25T04:51:41;3.67;;;1.80;;
78209;SDS011;67485;48.816;9.930;2023-04-25T04:54:28;3.80;;;1.83;;
78209;SDS011;67485;48.816;9.930;2023-04-25T04:57:09;6.15;;;2.00;;
78209;SDS011;67485;48.816;9.930;2023-04-25T04:59:58;4.75;;;1.52;;
78209;SDS011;67485;48.816;9.930;2023-04-25T05:02:45;4.13;;;1.90;;
78209;SDS011;67485;48.816;9.930;2023-04-25T05:05:28;3.72;;;2.17;;
78209;SDS011;67485;48.816;9.930;2023-04-25T05:08:13;7.03;;;2.33;;
78209;SDS011;67485;48.816;9.930;2023-04-25T05:11:11;5.60;;;2.05;;
78209;SDS011;67485;48.816;9.930;2023-04-25T05:14:03;3.92;;;2.03;;
78209;SDS011;67485;48.816;9.930;2023-04-25T05:16:44;3.70;;;1.83;;
78209;SDS011;67485;48.816;9.930;2023-04-25T05:19:30;4.03;;;2.05;;
78209;SDS011;67485;48.816;9.930;2023-04-25T05:22:28;5.43;;;2.07;;
78209;SDS011;67485;48.816;9.930;2023-04-25T05:25:06;6.18;;;2.35;;
78209;SDS011;67485;48.816;9.930;2023-04-25T05:27:48;3.17;;;1.98;;
78209;SDS011;67485;48.816;9.930;2023-04-25T05:30:40;7.13;;;2.35;;
78209;SDS011;67485;48.816;9.930;2023-04-25T05:33:10;6.50;;;1.88;;
78209;SDS011;67485;48.816;9.930;2023-04-25T05:35:37;6.17;;;2.07;;
78209;SDS011;67485;48.816;9.930;2023-04-25T05:38:03;5.47;;;2.42;;
78209;SDS011;67485;48.816;9.930;2023-04-25T05:40:47;4.07;;;2.22;;
78209;SDS011;67485;48.816;9.930;2023-04-25T05:43:32;4.93;;;1.90;;
78209;SDS011;67485;48.816;9.930;2023-04-25T05:46:08;3.67;;;2.07;;
78209;SDS011;67485;48.816;9.930;2023-04-25T05:48:52;3.50;;;2.00;;
78209;SDS011;67485;48.816;9.930;2023-04-25T05:51:37;3.40;;;2.00;;
78209;SDS011;67485;48.816;9.930;2023-04-25T05:54:17;4.20;;;1.90;;
78209;SDS011;67485;48.816;9.930;2023-04-25T05:56:43;4.88;;;2.20;;
78209;SDS011;67485;48.816;9.930;2023-04-25T05:59:09;7.23;;;2.13;;
78209;SDS011;67485;48.816;9.930;2023-04-25T06:01:35;5.53;;;2.20;;
78209;SDS011;67485;48.816;9.930;2023-04-25T06:04:01;4.57;;;2.00;;
78209;SDS011;67485;48.816;9.930;2023-04-25T06:06:26;3.43;;;2.00;;
78209;SDS011;67485;48.816;9.930;2023-04-25T06:08:52;4.55;;;1.90;;
78209;SDS011;67485;48.816;9.930;2023-04-25T06:11:18;3.83;;;1.90;;
78209;SDS011;67485;48.816;9.930;2023-04-25T06:13:45;5.37;;;1.70;;
78209;SDS011;67485;48.816;9.930;2023-04-25T06:16:11;4.00;;;1.70;;
78209;SDS011;67485;48.816;9.930;2023-04-25T06:18:38;3.47;;;1.83;;
78209;SDS011;67485;48.816;9.930;2023-04-25T06:21:04;8.15;;;1.58;;
78209;SDS011;67485;48.816;9.930;2023-04-25T06:23:30;3.53;;;1.80;;
78209;SDS011;67485;48.816;9.930;2023-04-25T06:26:02;3.15;;;1.60;;
78209;SDS011;67485;48.816;9.930;2023-04-25T06:28:29;4.38;;;1.83;;
78209;SDS011;67485;48.816;9.930;2023-04-25T06:30:55;3.60;;;1.77;;
78209;SDS011;67485;48.816;9.930;2023-04-25T06:36:13;3.53;;;1.80;;
78209;SDS011;67485;48.816;9.930;2023-04-25T06:38:40;4.82;;;1.70;;
78209;SDS011;67485;48.816;9.930;2023-04-25T06:41:06;4.03;;;1.90;;
78209;SDS011;67485;48.816;9.930;2023-04-25T06:43:34;5.35;;;1.77;;
78209;SDS011;67485;48.816;9.930;2023-04-25T06:46:09;4.47;;;1.70;;
78209;SDS011;67485;48.816;9.930;2023-04-25T06:48:41;4.90;;;2.03;;
78209;SDS011;67485;48.816;9.930;2023-04-25T06:51:07;3.50;;;1.73;;
78209;SDS011;67485;48.816;9.930;2023-04-25T06:53:33;3.47;;;1.83;;
78209;SDS011;67485;48.816;9.930;2023-04-25T06:56:02;4.20;;;2.20;;
78209;SDS011;67485;48.816;9.930;2023-04-25T06:58:48;4.57;;;1.90;;
78209;SDS011;67485;48.816;9.930;2023-04-25T07:01:27;4.20;;;1.90;;
78209;SDS011;67485;48.816;9.930;2023-04-25T07:03:53;3.88;;;1.75;;
78209;SDS011;67485;48.816;9.930;2023-04-25T07:06:19;5.88;;;2.28;;
78209;SDS011;67485;48.816;9.930;2023-04-25T07:08:45;5.30;;;2.30;;
78209;SDS011;67485;48.816;9.930;2023-04-25T07:11:11;5.93;;;2.00;;
78209;SDS011;67485;48.816;9.930;2023-04-25T07:13:36;5.32;;;2.00;;
78209;SDS011;67485;48.816;9.930;2023-04-25T07:16:02;5.93;;;2.30;;
78209;SDS011;67485;48.816;9.930;2023-04-25T07:18:30;3.60;;;2.03;;
78209;SDS011;67485;48.816;9.930;2023-04-25T07:20:56;3.60;;;2.10;;
78209;SDS011;67485;48.816;9.930;2023-04-25T07:23:22;6.57;;;2.13;;
78209;SDS011;67485;48.816;9.930;2023-04-25T07:25:48;3.43;;;2.00;;
78209;SDS011;67485;48.816;9.930;2023-04-25T07:28:19;2.53;;;1.70;;
78209;SDS011;67485;48.816;9.930;2023-04-25T07:30:46;2.80;;;1.80;;
78209;SDS011;67485;48.816;9.930;2023-04-25T07:33:12;3.90;;;1.90;;
78209;SDS011;67485;48.816;9.930;2023-04-25T07:35:38;4.30;;;2.20;;
78209;SDS011;67485;48.816;9.930;2023-04-25T07:38:05;4.70;;;2.00;;
78209;SDS011;67485;48.816;9.930;2023-04-25T07:40:32;5.55;;;1.90;;
78209;SDS011;67485;48.816;9.930;2023-04-25T07:43:04;3.45;;;1.90;;
78209;SDS011;67485;48.816;9.930;2023-04-25T07:45:43;4.07;;;2.03;;
78209;SDS011;67485;48.816;9.930;2023-04-25T07:48:09;5.03;;;2.40;;
78209;SDS011;67485;48.816;9.930;2023-04-25T07:50:37;2.90;;;2.20;;
78209;SDS011;67485;48.816;9.930;2023-04-25T07:53:03;3.33;;;2.10;;
78209;SDS011;67485;48.816;9.930;2023-04-25T07:55:37;3.17;;;1.90;;
78209;SDS011;67485;48.816;9.930;2023-04-25T07:58:13;3.17;;;1.90;;
78209;SDS011;67485;48.816;9.930;2023-04-25T08:00:42;2.92;;;2.00;;
78209;SDS011;67485;48.816;9.930;2023-04-25T08:03:26;4.38;;;1.60;;
78209;SDS011;67485;48.816;9.930;2023-04-25T08:05:53;2.80;;;1.75;;
78209;SDS011;67485;48.816;9.930;2023-04-25T08:08:19;2.67;;;1.80;;
78209;SDS011;67485;48.816;9.930;2023-04-25T08:10:45;4.55;;;1.73;;
78209;SDS011;67485;48.816;9.930;2023-04-25T08:13:14;2.25;;;1.58;;
78209;SDS011;67485;48.816;9.930;2023-04-25T08:15:40;2.38;;;1.45;;
78209;SDS011;67485;48.816;9.930;2023-04-25T08:18:06;3.57;;;1.60;;
78209;SDS011;67485;48.816;9.930;2023-04-25T08:20:31;3.45;;;1.60;;
78209;SDS011;67485;48.816;9.930;2023-04-25T08:22:59;2.53;;;1.50;;
78209;SDS011;67485;48.816;9.930;2023-04-25T08:25:33;2.50;;;1.80;;
78209;SDS011;67485;48.816;9.930;2023-04-25T08:27:59;3.47;;;1.70;;
78209;SDS011;67485;48.816;9.930;2023-04-25T08:30:28;2.38;;;1.60;;
78209;SDS011;67485;48.816;9.930;2023-04-25T08:32:55;2.42;;;1.65;;
78209;SDS011;67485;48.816;9.930;2023-04-25T08:35:39;2.73;;;1.80;;
78209;SDS011;67485;48.816;9.930;2023-04-25T08:38:06;2.97;;;1.95;;
78209;SDS011;67485;48.816;9.930;2023-04-25T08:40:31;3.13;;;1.77;;
78209;SDS011;67485;48.816;9.930;2023-04-25T08:43:06;4.20;;;1.60;;
78209;SDS011;67485;48.816;9.930;2023-04-25T08:45:41;2.38;;;1.77;;
78209;SDS011;67485;48.816;9.930;2023-04-25T08:48:11;5.77;;;3.80;;
78209;SDS011;67485;48.816;9.930;2023-04-25T08:50:49;3.25;;;2.10;;
78209;SDS011;67485;48.816;9.930;2023-04-25T08:53:21;2.50;;;1.55;;
78209;SDS011;67485;48.816;9.930;2023-04-25T08:55:54;2.95;;;1.80;;
78209;SDS011;67485;48.816;9.930;2023-04-25T08:58:21;3.00;;;1.70;;
78209;SDS011;67485;48.816;9.930;2023-04-25T09:00:47;3.03;;;1.70;;
78209;SDS011;67485;48.816;9.930;2023-04-25T09:03:14;2.20;;;1.60;;
78209;SDS011;67485;48.816;9.930;2023-04-25T09:05:41;3.83;;;2.60;;
78209;SDS011;67485;48.816;9.930;2023-04-25T09:08:08;4.25;;;2.78;;
78209;SDS011;67485;48.816;9.930;2023-04-25T09:10:33;2.40;;;1.60;;
78209;SDS011;67485;48.816;9.930;2023-04-25T09:13:11;2.67;;;1.77;;
78209;SDS011;67485;48.816;9.930;2023-04-25T09:16:00;2.20;;;1.60;;
78209;SDS011;67485;48.816;9.930;2023-04-25T09:18:43;3.17;;;1.95;;
78209;SDS011;67485;48.816;9.930;2023-04-25T09:21:10;2.72;;;1.88;;
78209;SDS011;67485;48.816;9.930;2023-04-25T09:23:41;3.23;;;1.83;;
78209;SDS011;67485;48.816;9.930;2023-04-25T09:26:10;3.00;;;2.13;;
78209;SDS011;67485;48.816;9.930;2023-04-25T09:28:39;2.83;;;1.90;;
78209;SDS011;67485;48.816;9.930;2023-04-25T09:31:05;2.90;;;1.85;;
78209;SDS011;67485;48.816;9.930;2023-04-25T09:33:37;3.55;;;1.67;;
78209;SDS011;67485;48.816;9.930;2023-04-25T09:36:05;3.20;;;2.00;;
78209;SDS011;67485;48.816;9.930;2023-04-25T09:39:12;4.13;;;2.50;;
78209;SDS011;67485;48.816;9.930;2023-04-25T09:41:45;8.43;;;2.38;;
78209;SDS011;67485;48.816;9.930;2023-04-25T09:44:12;4.88;;;2.30;;
78209;SDS011;67485;48.816;9.930;2023-04-25T09:46:40;8.43;;;5.53;;
78209;SDS011;67485;48.816;9.930;2023-04-25T09:49:12;9.57;;;5.90;;
78209;SDS011;67485;48.816;9.930;2023-04-25T09:52:00;7.03;;;3.55;;
78209;SDS011;67485;48.816;9.930;2023-04-25T09:54:32;4.53;;;2.90;;
78209;SDS011;67485;48.816;9.930;2023-04-25T09:57:18;3.80;;;2.50;;
78209;SDS011;67485;48.816;9.930;2023-04-25T09:59:46;4.35;;;2.70;;
78209;SDS011;67485;48.816;9.930;2023-04-25T10:02:18;4.67;;;3.00;;
78209;SDS011;67485;48.816;9.930;2023-04-25T10:04:49;4.00;;;2.60;;
78209;SDS011;67485;48.816;9.930;2023-04-25T10:07:22;5.35;;;3.13;;
78209;SDS011;67485;48.816;9.930;2023-04-25T10:10:00;4.82;;;2.78;;
78209;SDS011;67485;48.816;9.930;2023-04-25T10:12:29;5.10;;;2.80;;
78209;SDS011;67485;48.816;9.930;2023-04-25T10:14:58;5.50;;;3.00;;
78209;SDS011;67485;48.816;9.930;2023-04-25T10:17:28;5.70;;;2.80;;
78209;SDS011;67485;48.816;9.930;2023-04-25T10:19:54;5.65;;;2.90;;
78209;SDS011;67485;48.816;9.930;2023-04-25T10:22:23;5.07;;;3.00;;
78209;SDS011;67485;48.816;9.930;2023-04-25T10:24:56;3.92;;;2.53;;
78209;SDS011;67485;48.816;9.930;2023-04-25T10:27:22;3.90;;;2.50;;
78209;SDS011;67485;48.816;9.930;2023-04-25T10:30:04;3.70;;;2.42;;
78209;SDS011;67485;48.816;9.930;2023-04-25T10:32:36;5.50;;;2.58;;
78209;SDS011;67485;48.816;9.930;2023-04-25T10:35:12;5.93;;;2.60;;
78209;SDS011;67485;48.816;9.930;2023-04-25T10:38:10;6.10;;;3.20;;
78209;SDS011;67485;48.816;9.930;2023-04-25T10:40:39;5.95;;;3.40;;
78209;SDS011;67485;48.816;9.930;2023-04-25T10:51:21;5.67;;;3.20;;
78209;SDS011;67485;48.816;9.930;2023-04-25T10:53:56;4.80;;;3.08;;
78209;SDS011;67485;48.816;9.930;2023-04-25T10:56:27;5.35;;;3.22;;
78209;SDS011;67485;48.816;9.930;2023-04-25T10:59:13;5.80;;;3.00;;
78209;SDS011;67485;48.816;9.930;2023-04-25T11:01:41;6.88;;;2.63;;
78209;SDS011;67485;48.816;9.930;2023-04-25T11:04:21;5.13;;;2.80;;
78209;SDS011;67485;48.816;9.930;2023-04-25T11:09:48;3.70;;;2.00;;
78209;SDS011;67485;48.816;9.930;2023-04-25T11:12:14;3.57;;;2.13;;
78209;SDS011;67485;48.816;9.930;2023-04-25T11:14:41;5.07;;;2.40;;
78209;SDS011;67485;48.816;9.930;2023-04-25T11:17:07;3.42;;;2.20;;
78209;SDS011;67485;48.816;9.930;2023-04-25T11:19:32;3.27;;;2.00;;
78209;SDS011;67485;48.816;9.930;2023-04-25T11:21:59;3.33;;;2.00;;
78209;SDS011;67485;48.816;9.930;2023-04-25T11:24:29;3.03;;;2.20;;
78209;SDS011;67485;48.816;9.930;2023-04-25T11:27:00;3.03;;;2.03;;
78209;SDS011;67485;48.816;9.930;2023-04-25T11:29:30;3.20;;;2.20;;
78209;SDS011;67485;48.816;9.930;2023-04-25T11:31:56;3.75;;;2.47;;
78209;SDS011;67485;48.816;9.930;2023-04-25T11:34:26;4.45;;;2.20;;
78209;SDS011;67485;48.816;9.930;2023-04-25T11:36:56;3.50;;;2.00;;
78209;SDS011;67485;48.816;9.930;2023-04-25T11:39:23;3.80;;;2.00;;
78209;SDS011;67485;48.816;9.930;2023-04-25T11:41:50;3.28;;;1.80;;
78209;SDS011;67485;48.816;9.930;2023-04-25T11:44:16;3.95;;;1.70;;
78209;SDS011;67485;48.816;9.930;2023-04-25T11:46:43;3.40;;;1.38;;
78209;SDS011;67485;48.816;9.930;2023-04-25T11:49:09;2.25;;;1.60;;
78209;SDS011;67485;48.816;9.930;2023-04-25T11:51:53;3.73;;;2.10;;
78209;SDS011;67485;48.816;9.930;2023-04-25T11:54:18;3.00;;;2.03;;
78209;SDS011;67485;48.816;9.930;2023-04-25T11:56:45;3.22;;;2.28;;
78209;SDS011;67485;48.816;9.930;2023-04-25T11:59:11;4.13;;;2.50;;
78209;SDS011;67485;48.816;9.930;2023-04-25T12:01:39;4.97;;;2.40;;
78209;SDS011;67485;48.816;9.930;2023-04-25T12:04:10;4.30;;;2.47;;
78209;SDS011;67485;48.816;9.930;2023-04-25T12:06:37;4.25;;;2.40;;
78209;SDS011;67485;48.816;9.930;2023-04-25T12:09:07;4.10;;;2.80;;
78209;SDS011;67485;48.816;9.930;2023-04-25T12:11:55;5.10;;;2.70;;
78209;SDS011;67485;48.816;9.930;2023-04-25T12:14:27;5.40;;;2.60;;
78209;SDS011;67485;48.816;9.930;2023-04-25T12:16:55;3.85;;;2.05;;
78209;SDS011;67485;48.816;9.930;2023-04-25T12:19:23;4.65;;;2.08;;
78209;SDS011;67485;48.816;9.930;2023-04-25T12:21:49;3.97;;;2.20;;
78209;SDS011;67485;48.816;9.930;2023-04-25T12:24:16;4.37;;;2.47;;
78209;SDS011;67485;48.816;9.930;2023-04-25T12:26:53;6.85;;;2.45;;
78209;SDS011;67485;48.816;9.930;2023-04-25T12:29:20;5.30;;;2.10;;
78209;SDS011;67485;48.816;9.930;2023-04-25T12:31:48;3.63;;;2.33;;
78209;SDS011;67485;48.816;9.930;2023-04-25T12:34:14;4.50;;;2.10;;
78209;SDS011;67485;48.816;9.930;2023-04-25T12:36:40;3.87;;;2.10;;
78209;SDS011;67485;48.816;9.930;2023-04-25T12:39:05;4.35;;;1.98;;
78209;SDS011;67485;48.816;9.930;2023-04-25T12:41:32;5.47;;;2.00;;
78209;SDS011;67485;48.816;9.930;2023-04-25T12:43:58;3.63;;;2.03;;
78209;SDS011;67485;48.816;9.930;2023-04-25T12:46:24;4.15;;;2.30;;
78209;SDS011;67485;48.816;9.930;2023-04-25T12:48:49;3.93;;;2.00;;
78209;SDS011;67485;48.816;9.930;2023-04-25T12:51:15;2.67;;;1.98;;
78209;SDS011;67485;48.816;9.930;2023-04-25T12:53:41;4.57;;;2.27;;
78209;SDS011;67485;48.816;9.930;2023-04-25T12:56:07;5.25;;;2.38;;
78209;SDS011;67485;48.816;9.930;2023-04-25T12:58:33;7.03;;;2.28;;
78209;SDS011;67485;48.816;9.930;2023-04-25T13:00:59;4.23;;;2.50;;
78209;SDS011;67485;48.816;9.930;2023-04-25T13:03:25;3.33;;;1.90;;
78209;SDS011;67485;48.816;9.930;2023-04-25T13:05:51;3.53;;;1.57;;
78209;SDS011;67485;48.816;9.930;2023-04-25T13:08:20;4.22;;;1.77;;
78209;SDS011;67485;48.816;9.930;2023-04-25T13:10:49;4.78;;;1.90;;
78209;SDS011;67485;48.816;9.930;2023-04-25T13:13:14;4.38;;;2.10;;
78209;SDS011;67485;48.816;9.930;2023-04-25T13:15:41;3.13;;;2.10;;
78209;SDS011;67485;48.816;9.930;2023-04-25T13:18:07;6.57;;;2.13;;
78209;SDS011;67485;48.816;9.930;2023-04-25T13:20:33;3.40;;;2.20;;
78209;SDS011;67485;48.816;9.930;2023-04-25T13:22:59;3.30;;;2.00;;
78209;SDS011;67485;48.816;9.930;2023-04-25T13:25:24;3.97;;;2.40;;
78209;SDS011;67485;48.816;9.930;2023-04-25T13:27:50;3.90;;;2.40;;
78209;SDS011;67485;48.816;9.930;2023-04-25T13:30:16;5.13;;;2.75;;
78209;SDS011;67485;48.816;9.930;2023-04-25T13:32:42;5.27;;;3.13;;
78209;SDS011;67485;48.816;9.930;2023-04-25T13:35:09;6.50;;;3.00;;
78209;SDS011;67485;48.816;9.930;2023-04-25T13:37:36;5.20;;;3.00;;
78209;SDS011;67485;48.816;9.930;2023-04-25T13:40:03;6.25;;;3.13;;
78209;SDS011;67485;48.816;9.930;2023-04-25T13:42:38;4.57;;;2.70;;
78209;SDS011;67485;48.816;9.930;2023-04-25T13:45:04;5.85;;;2.75;;
78209;SDS011;67485;48.816;9.930;2023-04-25T13:47:32;4.63;;;3.20;;
78209;SDS011;67485;48.816;9.930;2023-04-25T13:49:57;5.32;;;2.88;;
78209;SDS011;67485;48.816;9.930;2023-04-25T13:52:23;6.07;;;3.33;;
78209;SDS011;67485;48.816;9.930;2023-04-25T13:54:49;6.05;;;3.00;;
78209;SDS011;67485;48.816;9.930;2023-04-25T13:57:16;7.32;;;3.38;;
78209;SDS011;67485;48.816;9.930;2023-04-25T13:59:42;5.50;;;3.08;;
78209;SDS011;67485;48.816;9.930;2023-04-25T14:02:08;6.00;;;3.00;;
78209;SDS011;67485;48.816;9.930;2023-04-25T14:04:34;3.97;;;3.05;;
78209;SDS011;67485;48.816;9.930;2023-04-25T14:07:00;6.95;;;3.58;;
78209;SDS011;67485;48.816;9.930;2023-04-25T14:09:27;4.70;;;3.35;;
78209;SDS011;67485;48.816;9.930;2023-04-25T14:11:53;6.97;;;3.87;;
78209;SDS011;67485;48.816;9.930;2023-04-25T14:14:19;6.40;;;3.97;;
78209;SDS011;67485;48.816;9.930;2023-04-25T14:16:46;6.45;;;3.92;;
78209;SDS011;67485;48.816;9.930;2023-04-25T14:19:13;5.97;;;3.30;;
78209;SDS011;67485;48.816;9.930;2023-04-25T14:21:40;6.75;;;3.25;;
78209;SDS011;67485;48.816;9.930;2023-04-25T14:24:06;5.50;;;2.97;;
78209;SDS011;67485;48.816;9.930;2023-04-25T14:26:33;5.88;;;3.60;;
78209;SDS011;67485;48.816;9.930;2023-04-25T14:29:00;6.32;;;3.30;;
78209;SDS011;67485;48.816;9.930;2023-04-25T14:31:26;5.38;;;3.60;;
78209;SDS011;67485;48.816;9.930;2023-04-25T14:33:52;4.00;;;3.07;;
78209;SDS011;67485;48.816;9.930;2023-04-25T14:36:18;5.15;;;3.03;;
78209;SDS011;67485;48.816;9.930;2023-04-25T14:38:44;7.15;;;3.40;;
78209;SDS011;67485;48.816;9.930;2023-04-25T14:41:10;7.57;;;3.57;;
78209;SDS011;67485;48.816;9.930;2023-04-25T14:43:36;6.90;;;3.58;;
78209;SDS011;67485;48.816;9.930;2023-04-25T14:46:02;6.47;;;3.80;;
78209;SDS011;67485;48.816;9.930;2023-04-25T14:48:28;7.82;;;4.15;;
78209;SDS011;67485;48.816;9.930;2023-04-25T14:50:54;5.47;;;3.50;;
78209;SDS011;67485;48.816;9.930;2023-04-25T14:53:22;7.05;;;3.28;;
78209;SDS011;67485;48.816;9.930;2023-04-25T14:55:47;5.53;;;3.23;;
78209;SDS011;67485;48.816;9.930;2023-04-25T14:58:14;5.93;;;3.37;;
78209;SDS011;67485;48.816;9.930;2023-04-25T15:00:40;5.30;;;3.47;;
78209;SDS011;67485;48.816;9.930;2023-04-25T15:03:06;6.13;;;3.95;;
78209;SDS011;67485;48.816;9.930;2023-04-25T15:05:34;7.00;;;4.07;;
78209;SDS011;67485;48.816;9.930;2023-04-25T15:07:59;8.52;;;4.30;;
78209;SDS011;67485;48.816;9.930;2023-04-25T15:10:25;6.20;;;4.00;;
78209;SDS011;67485;48.816;9.930;2023-04-25T15:12:51;7.10;;;3.60;;
78209;SDS011;67485;48.816;9.930;2023-04-25T15:15:18;4.15;;;2.38;;